Bretagne — FNBR — position and weather

sailwx.info

Track history (hours):
 
Tides and Currents Weather Stations Pressure Air Temp Water Temp Dewpoint Dewpoint Depression Visibility Wind Speed Wind Dir Waves Ship Positions

Bretagne

Operator: Brittany Ferries

Last reported at 2014-Oct-30 16:33 UTC. Time now 2014-Oct-30 18:24 UTC.
Position N 49°56' W 003°38'.

Length 151 m; beam 27 m.

Type: Passenger vessel. MMSI: 227286000.

Date/timePositionNaut miles runAvg speedWind from/ knotsBaromVisibWave heightAir tempDewpointWater temp
2014-Oct-30 16:33N 49°56' W 003°38'3717.8
2014-Oct-30 14:30N 49°28' W 003°01'54 4.0
2014-Oct-30 01:04N 49°57' W 001°50'812.7
2014-Oct-30 00:24N 50°04' W 001°44'1112.6
2014-Oct-29 23:33N 50°12' W 001°32'1313.2
2014-Oct-29 22:33N 50°23' W 001°20'1313.2
2014-Oct-29 21:33N 50°34' W 001°10'1211.7
2014-Oct-29 20:34N 50°46' W 001°05'3 3.0
2014-Oct-29 19:33N 50°49' W 001°06'0 0.0
2014-Oct-29 18:33N 50°49' W 001°06'0 0.0
2014-Oct-29 17:34N 50°49' W 001°06'0 0.0
2014-Oct-29 16:33N 50°49' W 001°06'0 0.0
2014-Oct-29 15:34N 50°49' W 001°06'0 0.0
2014-Oct-29 14:33N 50°49' W 001°06'0 0.0
2014-Oct-29 13:33N 50°49' W 001°06'0 0.0
2014-Oct-29 12:33N 50°49' W 001°06'0 0.0
2014-Oct-29 11:34N 50°49' W 001°06'0 0.0
2014-Oct-29 10:33N 50°49' W 001°06'0 0.0
2014-Oct-29 09:33N 50°49' W 001°06'0 0.0
2014-Oct-29 08:33N 50°49' W 001°06'0 0.0
2014-Oct-29 07:33N 50°49' W 001°06'1111.4
2014-Oct-29 06:33N 50°37' W 001°07'124 6.8
2014-Oct-28 12:24N 48°38' W 002°02'0 0.0
2014-Oct-28 10:24N 48°38' W 002°02'0 0.0
2014-Oct-28 09:30N 48°38' W 002°02'0 0.0
2014-Oct-28 07:19N 48°38' W 002°02'8 9.3
2014-Oct-28 06:30N 48°45' W 002°08'2412.0
2014-Oct-28 04:32N 49°02' W 002°32'1211.8
2014-Oct-28 03:33N 49°12' W 002°42'1413.6
2014-Oct-28 02:33N 49°22' W 002°56'1313.2
2014-Oct-28 01:33N 49°32' W 003°10'1413.6
2014-Oct-28 00:33N 49°44' W 003°18'1414.0
2014-Oct-27 23:33N 49°57' W 003°27'1515.2
2014-Oct-27 22:33N 50°06' W 003°46'2015.2
2014-Oct-27 21:13N 50°19' W 004°10'3 4.1
2014-Oct-27 20:31N 50°22' W 004°09'0 0.0
2014-Oct-27 19:31N 50°22' W 004°09'0 0.0
2014-Oct-27 18:31N 50°22' W 004°09'0 0.0
2014-Oct-27 17:31N 50°22' W 004°09'0 0.0
2014-Oct-27 16:31N 50°22' W 004°09'0 0.0
2014-Oct-27 15:32N 50°22' W 004°09'2 2.2
2014-Oct-27 14:32N 50°20' W 004°11'0 0.0
2014-Oct-26 22:34N 50°20' W 004°10'2 2.1
2014-Oct-26 21:31N 50°22' W 004°09'0 0.0
2014-Oct-26 20:34N 50°22' W 004°09'2 2.4
2014-Oct-26 19:33N 50°19' W 004°10'2117.6
2014-Oct-26 18:21N 49°58' W 004°09'153 6.2
2014-Oct-25 17:33N 51°15' W 007°37'1918.9
2014-Oct-25 16:33N 51°29' W 007°56'1918.9
2014-Oct-25 15:34N 51°45' W 008°14'6 6.0
2014-Oct-25 14:32N 51°50' W 008°19'0 0.0
2014-Oct-25 13:23N 51°50' W 008°19'0 0.0
2014-Oct-25 12:32N 51°50' W 008°19'0 0.0
2014-Oct-25 11:33N 51°50' W 008°19'4 4.5
2014-Oct-25 10:33N 51°46' W 008°15'1818.3
2014-Oct-25 09:33N 51°33' W 007°54'1918.8
2014-Oct-25 08:33N 51°20' W 007°33'141 7.4
2014-Oct-24 13:33N 50°22' W 004°09'0 0.2
2014-Oct-24 12:33N 50°22' W 004°09'1 1.3
2014-Oct-24 11:31N 50°21' W 004°09'2 0.1
2014-Oct-23 20:23N 50°19' W 004°10'3 3.2
2014-Oct-23 19:32N 50°22' W 004°09'0 0.0
2014-Oct-23 18:32N 50°22' W 004°09'1 1.3
2014-Oct-23 17:30N 50°21' W 004°09'1615.9
2014-Oct-23 16:31N 50°08' W 003°54'1818.7
2014-Oct-23 15:33N 49°53' W 003°38'68 6.0
2014-Oct-23 04:14N 49°05' W 002°25'2713.8
2014-Oct-23 02:17N 49°30' W 002°10'1112.7
2014-Oct-23 01:26N 49°40' W 002°05'1213.8
2014-Oct-23 00:32N 49°51' W 001°57'1312.4
2014-Oct-22 23:32N 50°01' W 001°45'2914.9
2014-Oct-22 21:33N 50°25' W 001°19'1313.5
2014-Oct-22 20:33N 50°37' W 001°07'1110.7
2014-Oct-22 19:33N 50°47' W 001°07'1 1.5
2014-Oct-22 18:33N 50°49' W 001°06'0 0.0
2014-Oct-22 17:33N 50°49' W 001°06'0 0.0
2014-Oct-22 16:33N 50°49' W 001°06'0 0.0
2014-Oct-22 15:33N 50°49' W 001°06'0 0.0
2014-Oct-22 14:33N 50°49' W 001°06'0 0.0
2014-Oct-22 13:33N 50°49' W 001°06'0 0.1
2014-Oct-22 12:34N 50°49' W 001°06'5 4.9
2014-Oct-22 11:33N 50°44' W 001°03'5 4.8
2014-Oct-22 10:33N 50°40' W 001°00'4 4.5
2014-Oct-22 09:33N 50°37' W 001°06'8 8.3
2014-Oct-22 08:34N 50°46' W 001°05'3 2.9
2014-Oct-22 07:32N 50°49' W 001°06'0 0.0
2014-Oct-22 06:34N 50°49' W 001°06'9 9.1
2014-Oct-22 05:33N 50°41' W 000°58'110 3.7
2014-Oct-20 23:32N 49°48' W 003°29'1110.6
2014-Oct-20 22:32N 49°55' W 003°42'1110.9
2014-Oct-20 21:33N 50°04' W 003°52'1913.7
2014-Oct-20 20:09N 50°19' W 004°10'3 5.1
2014-Oct-20 19:33N 50°22' W 004°09'0 0.0
2014-Oct-20 18:33N 50°22' W 004°09'0 0.0
2014-Oct-20 17:33N 50°22' W 004°09'  
Track history (hours):
 
Tides and Currents Weather Stations Pressure Air Temp Water Temp Dewpoint Dewpoint Depression Visibility Wind Speed Wind Dir Waves Ship Positions

Bretagne

Operator: Brittany Ferries

Last reported at 2014-Oct-30 16:33 UTC. Time now 2014-Oct-30 18:24 UTC.
Position N 49°56' W 003°38'.

Length 151 m; beam 27 m.

Type: Passenger vessel. MMSI: 227286000.

Date/timePositionNaut miles runAvg speedWind from/ knotsBaromVisibWave heightAir tempDewpointWater temp
2014-Oct-30 16:33N 49°56' W 003°38'3717.8
2014-Oct-30 14:30N 49°28' W 003°01'54 4.0
2014-Oct-30 01:04N 49°57' W 001°50'812.7
2014-Oct-30 00:24N 50°04' W 001°44'1112.6
2014-Oct-29 23:33N 50°12' W 001°32'1313.2
2014-Oct-29 22:33N 50°23' W 001°20'1313.2
2014-Oct-29 21:33N 50°34' W 001°10'1211.7
2014-Oct-29 20:34N 50°46' W 001°05'3 3.0
2014-Oct-29 19:33N 50°49' W 001°06'0 0.0
2014-Oct-29 18:33N 50°49' W 001°06'0 0.0
2014-Oct-29 17:34N 50°49' W 001°06'0 0.0
2014-Oct-29 16:33N 50°49' W 001°06'0 0.0
2014-Oct-29 15:34N 50°49' W 001°06'0 0.0
2014-Oct-29 14:33N 50°49' W 001°06'0 0.0
2014-Oct-29 13:33N 50°49' W 001°06'0 0.0
2014-Oct-29 12:33N 50°49' W 001°06'0 0.0
2014-Oct-29 11:34N 50°49' W 001°06'0 0.0
2014-Oct-29 10:33N 50°49' W 001°06'0 0.0
2014-Oct-29 09:33N 50°49' W 001°06'0 0.0
2014-Oct-29 08:33N 50°49' W 001°06'0 0.0
2014-Oct-29 07:33N 50°49' W 001°06'1111.4
2014-Oct-29 06:33N 50°37' W 001°07'124 6.8
2014-Oct-28 12:24N 48°38' W 002°02'0 0.0
2014-Oct-28 10:24N 48°38' W 002°02'0 0.0
2014-Oct-28 09:30N 48°38' W 002°02'0 0.0
2014-Oct-28 07:19N 48°38' W 002°02'8 9.3
2014-Oct-28 06:30N 48°45' W 002°08'2412.0
2014-Oct-28 04:32N 49°02' W 002°32'1211.8
2014-Oct-28 03:33N 49°12' W 002°42'1413.6
2014-Oct-28 02:33N 49°22' W 002°56'1313.2
2014-Oct-28 01:33N 49°32' W 003°10'1413.6
2014-Oct-28 00:33N 49°44' W 003°18'1414.0
2014-Oct-27 23:33N 49°57' W 003°27'1515.2
2014-Oct-27 22:33N 50°06' W 003°46'2015.2
2014-Oct-27 21:13N 50°19' W 004°10'3 4.1
2014-Oct-27 20:31N 50°22' W 004°09'0 0.0
2014-Oct-27 19:31N 50°22' W 004°09'0 0.0
2014-Oct-27 18:31N 50°22' W 004°09'0 0.0
2014-Oct-27 17:31N 50°22' W 004°09'0 0.0
2014-Oct-27 16:31N 50°22' W 004°09'0 0.0
2014-Oct-27 15:32N 50°22' W 004°09'2 2.2
2014-Oct-27 14:32N 50°20' W 004°11'0 0.0
2014-Oct-26 22:34N 50°20' W 004°10'2 2.1
2014-Oct-26 21:31N 50°22' W 004°09'0 0.0
2014-Oct-26 20:34N 50°22' W 004°09'2 2.4
2014-Oct-26 19:33N 50°19' W 004°10'2117.6
2014-Oct-26 18:21N 49°58' W 004°09'153 6.2
2014-Oct-25 17:33N 51°15' W 007°37'1918.9
2014-Oct-25 16:33N 51°29' W 007°56'1918.9
2014-Oct-25 15:34N 51°45' W 008°14'6 6.0
2014-Oct-25 14:32N 51°50' W 008°19'0 0.0
2014-Oct-25 13:23N 51°50' W 008°19'0 0.0
2014-Oct-25 12:32N 51°50' W 008°19'0 0.0
2014-Oct-25 11:33N 51°50' W 008°19'4 4.5
2014-Oct-25 10:33N 51°46' W 008°15'1818.3
2014-Oct-25 09:33N 51°33' W 007°54'1918.8
2014-Oct-25 08:33N 51°20' W 007°33'141 7.4
2014-Oct-24 13:33N 50°22' W 004°09'0 0.2
2014-Oct-24 12:33N 50°22' W 004°09'1 1.3
2014-Oct-24 11:31N 50°21' W 004°09'2 0.1
2014-Oct-23 20:23N 50°19' W 004°10'3 3.2
2014-Oct-23 19:32N 50°22' W 004°09'0 0.0
2014-Oct-23 18:32N 50°22' W 004°09'1 1.3
2014-Oct-23 17:30N 50°21' W 004°09'1615.9
2014-Oct-23 16:31N 50°08' W 003°54'1818.7
2014-Oct-23 15:33N 49°53' W 003°38'68 6.0
2014-Oct-23 04:14N 49°05' W 002°25'2713.8
2014-Oct-23 02:17N 49°30' W 002°10'1112.7
2014-Oct-23 01:26N 49°40' W 002°05'1213.8
2014-Oct-23 00:32N 49°51' W 001°57'1312.4
2014-Oct-22 23:32N 50°01' W 001°45'2914.9
2014-Oct-22 21:33N 50°25' W 001°19'1313.5
2014-Oct-22 20:33N 50°37' W 001°07'1110.7
2014-Oct-22 19:33N 50°47' W 001°07'1 1.5
2014-Oct-22 18:33N 50°49' W 001°06'0 0.0
2014-Oct-22 17:33N 50°49' W 001°06'0 0.0
2014-Oct-22 16:33N 50°49' W 001°06'0 0.0
2014-Oct-22 15:33N 50°49' W 001°06'0 0.0
2014-Oct-22 14:33N 50°49' W 001°06'0 0.0
2014-Oct-22 13:33N 50°49' W 001°06'0 0.1
2014-Oct-22 12:34N 50°49' W 001°06'5 4.9
2014-Oct-22 11:33N 50°44' W 001°03'5 4.8
2014-Oct-22 10:33N 50°40' W 001°00'4 4.5
2014-Oct-22 09:33N 50°37' W 001°06'8 8.3
2014-Oct-22 08:34N 50°46' W 001°05'3 2.9
2014-Oct-22 07:32N 50°49' W 001°06'0 0.0
2014-Oct-22 06:34N 50°49' W 001°06'9 9.1
2014-Oct-22 05:33N 50°41' W 000°58'110 3.7
2014-Oct-20 23:32N 49°48' W 003°29'1110.6
2014-Oct-20 22:32N 49°55' W 003°42'1110.9
2014-Oct-20 21:33N 50°04' W 003°52'1913.7
2014-Oct-20 20:09N 50°19' W 004°10'3 5.1
2014-Oct-20 19:33N 50°22' W 004°09'0 0.0
2014-Oct-20 18:33N 50°22' W 004°09'0 0.0
2014-Oct-20 17:33N 50°22' W 004°09'  

Dump ship's entire track history